sensor_id;sensor_type;location;lat;lon;timestamp;P1;durP1;ratioP1;P2;durP2;ratioP2
6394;SDS011;3230;42.588;23.358;2022-08-02T00:02:17;2.33;;;1.90;;
6394;SDS011;3230;42.588;23.358;2022-08-02T00:04:44;3.63;;;2.20;;
6394;SDS011;3230;42.588;23.358;2022-08-02T00:07:09;2.30;;;1.70;;
6394;SDS011;3230;42.588;23.358;2022-08-02T00:09:35;2.57;;;1.80;;
6394;SDS011;3230;42.588;23.358;2022-08-02T00:12:00;2.17;;;1.70;;
6394;SDS011;3230;42.588;23.358;2022-08-02T00:14:26;2.73;;;2.00;;
6394;SDS011;3230;42.588;23.358;2022-08-02T00:16:51;2.70;;;1.93;;
6394;SDS011;3230;42.588;23.358;2022-08-02T00:19:16;2.60;;;2.00;;
6394;SDS011;3230;42.588;23.358;2022-08-02T00:21:42;2.50;;;2.10;;
6394;SDS011;3230;42.588;23.358;2022-08-02T00:24:07;2.90;;;2.00;;
6394;SDS011;3230;42.588;23.358;2022-08-02T00:26:33;3.50;;;2.33;;
6394;SDS011;3230;42.588;23.358;2022-08-02T00:28:58;4.83;;;2.20;;
6394;SDS011;3230;42.588;23.358;2022-08-02T00:31:24;3.10;;;2.27;;
6394;SDS011;3230;42.588;23.358;2022-08-02T00:33:49;3.57;;;2.17;;
6394;SDS011;3230;42.588;23.358;2022-08-02T00:36:15;2.70;;;2.10;;
6394;SDS011;3230;42.588;23.358;2022-08-02T00:38:40;6.77;;;2.70;;
6394;SDS011;3230;42.588;23.358;2022-08-02T00:41:10;3.47;;;2.20;;
6394;SDS011;3230;42.588;23.358;2022-08-02T00:43:38;2.90;;;2.27;;
6394;SDS011;3230;42.588;23.358;2022-08-02T00:46:03;5.03;;;2.53;;
6394;SDS011;3230;42.588;23.358;2022-08-02T00:48:28;2.80;;;2.37;;
6394;SDS011;3230;42.588;23.358;2022-08-02T00:50:54;2.63;;;2.40;;
6394;SDS011;3230;42.588;23.358;2022-08-02T00:53:21;2.70;;;2.27;;
6394;SDS011;3230;42.588;23.358;2022-08-02T00:55:46;2.97;;;2.60;;
6394;SDS011;3230;42.588;23.358;2022-08-02T00:58:12;2.93;;;2.33;;
6394;SDS011;3230;42.588;23.358;2022-08-02T01:00:37;2.70;;;2.40;;
6394;SDS011;3230;42.588;23.358;2022-08-02T01:03:03;6.67;;;2.50;;
6394;SDS011;3230;42.588;23.358;2022-08-02T01:05:28;3.40;;;2.53;;
6394;SDS011;3230;42.588;23.358;2022-08-02T01:07:54;3.50;;;2.53;;
6394;SDS011;3230;42.588;23.358;2022-08-02T01:10:20;4.43;;;2.67;;
6394;SDS011;3230;42.588;23.358;2022-08-02T01:12:45;3.97;;;2.20;;
6394;SDS011;3230;42.588;23.358;2022-08-02T01:15:11;3.87;;;2.70;;
6394;SDS011;3230;42.588;23.358;2022-08-02T01:26:36;3.63;;;2.50;;
6394;SDS011;3230;42.588;23.358;2022-08-02T01:29:17;4.30;;;3.00;;
6394;SDS011;3230;42.588;23.358;2022-08-02T01:37:13;3.70;;;2.40;;
6394;SDS011;3230;42.588;23.358;2022-08-02T01:39:43;2.30;;;2.10;;
6394;SDS011;3230;42.588;23.358;2022-08-02T01:42:11;3.77;;;2.63;;
6394;SDS011;3230;42.588;23.358;2022-08-02T01:44:40;4.57;;;2.87;;
6394;SDS011;3230;42.588;23.358;2022-08-02T01:47:13;3.73;;;2.90;;
6394;SDS011;3230;42.588;23.358;2022-08-02T01:49:42;2.87;;;2.50;;
6394;SDS011;3230;42.588;23.358;2022-08-02T01:52:10;3.70;;;2.73;;
6394;SDS011;3230;42.588;23.358;2022-08-02T01:54:51;4.20;;;2.67;;
6394;SDS011;3230;42.588;23.358;2022-08-02T01:57:18;5.97;;;2.73;;
6394;SDS011;3230;42.588;23.358;2022-08-02T01:59:47;3.30;;;2.60;;
6394;SDS011;3230;42.588;23.358;2022-08-02T02:02:15;5.17;;;3.10;;
6394;SDS011;3230;42.588;23.358;2022-08-02T02:04:42;5.00;;;3.00;;
6394;SDS011;3230;42.588;23.358;2022-08-02T02:07:11;3.10;;;2.80;;
6394;SDS011;3230;42.588;23.358;2022-08-02T02:09:39;3.27;;;2.67;;
6394;SDS011;3230;42.588;23.358;2022-08-02T02:12:07;3.40;;;2.80;;
6394;SDS011;3230;42.588;23.358;2022-08-02T02:14:36;4.00;;;2.90;;
6394;SDS011;3230;42.588;23.358;2022-08-02T02:17:03;4.67;;;2.70;;
6394;SDS011;3230;42.588;23.358;2022-08-02T02:19:32;3.13;;;2.60;;
6394;SDS011;3230;42.588;23.358;2022-08-02T02:22:00;5.80;;;3.00;;
6394;SDS011;3230;42.588;23.358;2022-08-02T02:24:25;3.17;;;2.80;;
6394;SDS011;3230;42.588;23.358;2022-08-02T02:26:51;3.13;;;2.83;;
6394;SDS011;3230;42.588;23.358;2022-08-02T02:29:17;3.70;;;2.90;;
6394;SDS011;3230;42.588;23.358;2022-08-02T02:31:46;3.10;;;2.70;;
6394;SDS011;3230;42.588;23.358;2022-08-02T02:34:14;3.90;;;3.00;;
6394;SDS011;3230;42.588;23.358;2022-08-02T02:36:48;4.07;;;2.90;;
6394;SDS011;3230;42.588;23.358;2022-08-02T02:39:17;3.40;;;2.80;;
6394;SDS011;3230;42.588;23.358;2022-08-02T02:41:46;7.50;;;3.13;;
6394;SDS011;3230;42.588;23.358;2022-08-02T02:44:15;4.77;;;3.20;;
6394;SDS011;3230;42.588;23.358;2022-08-02T02:46:43;4.87;;;3.17;;
6394;SDS011;3230;42.588;23.358;2022-08-02T02:49:12;3.80;;;3.07;;
6394;SDS011;3230;42.588;23.358;2022-08-02T02:51:40;4.80;;;3.10;;
6394;SDS011;3230;42.588;23.358;2022-08-02T02:54:07;6.83;;;2.80;;
6394;SDS011;3230;42.588;23.358;2022-08-02T02:56:35;4.33;;;3.10;;
6394;SDS011;3230;42.588;23.358;2022-08-02T02:59:02;5.23;;;3.30;;
6394;SDS011;3230;42.588;23.358;2022-08-02T03:01:27;5.57;;;3.20;;
6394;SDS011;3230;42.588;23.358;2022-08-02T03:03:59;3.23;;;2.60;;
6394;SDS011;3230;42.588;23.358;2022-08-02T03:06:26;5.33;;;3.00;;
6394;SDS011;3230;42.588;23.358;2022-08-02T03:08:52;3.67;;;3.07;;
6394;SDS011;3230;42.588;23.358;2022-08-02T03:11:17;4.33;;;2.63;;
6394;SDS011;3230;42.588;23.358;2022-08-02T03:13:43;3.77;;;2.27;;
6394;SDS011;3230;42.588;23.358;2022-08-02T03:16:10;4.27;;;2.50;;
6394;SDS011;3230;42.588;23.358;2022-08-02T03:18:40;3.40;;;2.53;;
6394;SDS011;3230;42.588;23.358;2022-08-02T03:21:08;2.20;;;2.00;;
6394;SDS011;3230;42.588;23.358;2022-08-02T03:23:36;3.03;;;2.40;;
6394;SDS011;3230;42.588;23.358;2022-08-02T03:26:03;3.50;;;2.10;;
6394;SDS011;3230;42.588;23.358;2022-08-02T03:28:29;6.03;;;2.20;;
6394;SDS011;3230;42.588;23.358;2022-08-02T03:30:55;2.73;;;1.90;;
6394;SDS011;3230;42.588;23.358;2022-08-02T03:33:21;2.40;;;1.73;;
6394;SDS011;3230;42.588;23.358;2022-08-02T03:35:49;1.90;;;1.70;;
6394;SDS011;3230;42.588;23.358;2022-08-02T03:38:16;2.03;;;1.70;;
6394;SDS011;3230;42.588;23.358;2022-08-02T03:40:44;1.90;;;1.63;;
6394;SDS011;3230;42.588;23.358;2022-08-02T03:43:11;2.00;;;1.70;;
6394;SDS011;3230;42.588;23.358;2022-08-02T03:45:46;1.60;;;1.40;;
6394;SDS011;3230;42.588;23.358;2022-08-02T03:48:16;1.83;;;1.50;;
6394;SDS011;3230;42.588;23.358;2022-08-02T03:50:42;4.23;;;1.37;;
6394;SDS011;3230;42.588;23.358;2022-08-02T03:53:12;2.00;;;1.70;;
6394;SDS011;3230;42.588;23.358;2022-08-02T03:55:39;3.23;;;1.93;;
6394;SDS011;3230;42.588;23.358;2022-08-02T03:58:05;3.33;;;1.80;;
6394;SDS011;3230;42.588;23.358;2022-08-02T04:00:31;2.10;;;1.57;;
6394;SDS011;3230;42.588;23.358;2022-08-02T04:02:57;36.43;;;3.93;;
6394;SDS011;3230;42.588;23.358;2022-08-02T04:05:23;3.50;;;1.80;;
6394;SDS011;3230;42.588;23.358;2022-08-02T04:07:49;3.40;;;1.87;;
6394;SDS011;3230;42.588;23.358;2022-08-02T04:10:15;7.63;;;2.50;;
6394;SDS011;3230;42.588;23.358;2022-08-02T04:12:41;5.37;;;2.17;;
6394;SDS011;3230;42.588;23.358;2022-08-02T04:15:07;17.30;;;2.63;;
6394;SDS011;3230;42.588;23.358;2022-08-02T04:17:35;12.33;;;2.50;;
6394;SDS011;3230;42.588;23.358;2022-08-02T04:20:07;16.13;;;3.00;;
6394;SDS011;3230;42.588;23.358;2022-08-02T04:22:39;3.60;;;2.27;;
6394;SDS011;3230;42.588;23.358;2022-08-02T04:25:11;5.37;;;2.50;;
6394;SDS011;3230;42.588;23.358;2022-08-02T04:27:37;3.80;;;2.40;;
6394;SDS011;3230;42.588;23.358;2022-08-02T04:30:05;4.07;;;2.60;;
6394;SDS011;3230;42.588;23.358;2022-08-02T04:32:32;3.40;;;2.73;;
6394;SDS011;3230;42.588;23.358;2022-08-02T04:34:59;37.47;;;4.57;;
6394;SDS011;3230;42.588;23.358;2022-08-02T04:37:25;12.23;;;2.73;;
6394;SDS011;3230;42.588;23.358;2022-08-02T04:39:51;3.13;;;2.50;;
6394;SDS011;3230;42.588;23.358;2022-08-02T04:42:20;16.97;;;3.20;;
6394;SDS011;3230;42.588;23.358;2022-08-02T04:44:50;10.43;;;3.13;;
6394;SDS011;3230;42.588;23.358;2022-08-02T04:47:16;4.97;;;2.70;;
6394;SDS011;3230;42.588;23.358;2022-08-02T04:49:42;7.50;;;2.43;;
6394;SDS011;3230;42.588;23.358;2022-08-02T04:52:07;3.40;;;2.30;;
6394;SDS011;3230;42.588;23.358;2022-08-02T04:54:33;6.43;;;2.33;;
6394;SDS011;3230;42.588;23.358;2022-08-02T04:56:58;4.43;;;2.20;;
6394;SDS011;3230;42.588;23.358;2022-08-02T04:59:24;7.33;;;2.60;;
6394;SDS011;3230;42.588;23.358;2022-08-02T05:01:49;2.57;;;1.97;;
6394;SDS011;3230;42.588;23.358;2022-08-02T05:04:14;2.73;;;2.17;;
6394;SDS011;3230;42.588;23.358;2022-08-02T05:06:40;3.83;;;2.00;;
6394;SDS011;3230;42.588;23.358;2022-08-02T05:09:05;6.23;;;2.13;;
6394;SDS011;3230;42.588;23.358;2022-08-02T05:11:31;8.07;;;2.50;;
6394;SDS011;3230;42.588;23.358;2022-08-02T05:13:56;5.93;;;2.37;;
6394;SDS011;3230;42.588;23.358;2022-08-02T05:16:22;2.73;;;1.80;;
6394;SDS011;3230;42.588;23.358;2022-08-02T05:18:47;2.40;;;2.17;;
6394;SDS011;3230;42.588;23.358;2022-08-02T05:21:14;2.50;;;2.30;;
6394;SDS011;3230;42.588;23.358;2022-08-02T05:23:40;3.33;;;2.10;;
6394;SDS011;3230;42.588;23.358;2022-08-02T05:26:06;3.40;;;2.10;;
6394;SDS011;3230;42.588;23.358;2022-08-02T05:28:31;13.93;;;2.70;;
6394;SDS011;3230;42.588;23.358;2022-08-02T05:30:57;2.87;;;2.20;;
6394;SDS011;3230;42.588;23.358;2022-08-02T05:33:22;3.57;;;2.20;;
6394;SDS011;3230;42.588;23.358;2022-08-02T05:35:47;4.30;;;2.50;;
6394;SDS011;3230;42.588;23.358;2022-08-02T05:38:13;2.53;;;2.27;;
6394;SDS011;3230;42.588;23.358;2022-08-02T05:40:39;4.37;;;2.67;;
6394;SDS011;3230;42.588;23.358;2022-08-02T05:43:11;3.80;;;2.60;;
6394;SDS011;3230;42.588;23.358;2022-08-02T05:45:38;6.83;;;2.83;;
6394;SDS011;3230;42.588;23.358;2022-08-02T05:48:04;6.30;;;3.00;;
6394;SDS011;3230;42.588;23.358;2022-08-02T05:50:29;3.00;;;2.70;;
6394;SDS011;3230;42.588;23.358;2022-08-02T05:53:03;20.50;;;4.53;;
6394;SDS011;3230;42.588;23.358;2022-08-02T05:55:46;3.63;;;3.13;;
6394;SDS011;3230;42.588;23.358;2022-08-02T05:58:17;5.10;;;3.07;;
6394;SDS011;3230;42.588;23.358;2022-08-02T06:00:49;4.43;;;3.20;;
6394;SDS011;3230;42.588;23.358;2022-08-02T06:03:26;3.23;;;2.90;;
6394;SDS011;3230;42.588;23.358;2022-08-02T06:11:06;3.40;;;2.70;;
6394;SDS011;3230;42.588;23.358;2022-08-02T06:13:37;4.47;;;2.93;;
6394;SDS011;3230;42.588;23.358;2022-08-02T06:16:05;4.67;;;2.60;;
6394;SDS011;3230;42.588;23.358;2022-08-02T06:18:31;11.90;;;3.20;;
6394;SDS011;3230;42.588;23.358;2022-08-02T06:21:00;4.13;;;2.60;;
6394;SDS011;3230;42.588;23.358;2022-08-02T06:23:27;4.63;;;2.47;;
6394;SDS011;3230;42.588;23.358;2022-08-02T06:25:53;3.03;;;2.33;;
6394;SDS011;3230;42.588;23.358;2022-08-02T06:28:21;20.83;;;2.67;;
6394;SDS011;3230;42.588;23.358;2022-08-02T06:30:46;1.70;;;1.60;;
6394;SDS011;3230;42.588;23.358;2022-08-02T06:33:12;2.30;;;1.70;;
6394;SDS011;3230;42.588;23.358;2022-08-02T06:35:45;2.10;;;1.77;;
6394;SDS011;3230;42.588;23.358;2022-08-02T06:38:23;2.47;;;1.80;;
6394;SDS011;3230;42.588;23.358;2022-08-02T06:40:56;3.50;;;1.90;;
6394;SDS011;3230;42.588;23.358;2022-08-02T06:46:10;1.60;;;1.50;;
6394;SDS011;3230;42.588;23.358;2022-08-02T06:48:36;1.93;;;1.73;;
6394;SDS011;3230;42.588;23.358;2022-08-02T06:51:02;4.57;;;1.80;;
6394;SDS011;3230;42.588;23.358;2022-08-02T06:53:28;4.37;;;2.27;;
6394;SDS011;3230;42.588;23.358;2022-08-02T06:55:54;2.37;;;1.90;;
6394;SDS011;3230;42.588;23.358;2022-08-02T06:58:20;1.93;;;1.80;;
6394;SDS011;3230;42.588;23.358;2022-08-02T07:00:46;2.40;;;2.20;;
6394;SDS011;3230;42.588;23.358;2022-08-02T07:03:12;3.07;;;1.80;;
6394;SDS011;3230;42.588;23.358;2022-08-02T07:05:38;2.83;;;1.90;;
6394;SDS011;3230;42.588;23.358;2022-08-02T07:08:05;3.60;;;2.10;;
6394;SDS011;3230;42.588;23.358;2022-08-02T07:10:31;1.70;;;1.60;;
6394;SDS011;3230;42.588;23.358;2022-08-02T07:12:57;2.27;;;1.90;;
6394;SDS011;3230;42.588;23.358;2022-08-02T07:15:22;2.47;;;1.80;;
6394;SDS011;3230;42.588;23.358;2022-08-02T07:17:48;3.07;;;1.40;;
6394;SDS011;3230;42.588;23.358;2022-08-02T07:20:13;1.97;;;1.77;;
6394;SDS011;3230;42.588;23.358;2022-08-02T07:22:39;1.73;;;1.57;;
6394;SDS011;3230;42.588;23.358;2022-08-02T07:25:05;2.73;;;1.60;;
6394;SDS011;3230;42.588;23.358;2022-08-02T07:27:31;2.53;;;1.70;;
6394;SDS011;3230;42.588;23.358;2022-08-02T07:29:58;4.57;;;1.57;;
6394;SDS011;3230;42.588;23.358;2022-08-02T07:32:25;2.67;;;1.47;;
6394;SDS011;3230;42.588;23.358;2022-08-02T07:34:52;1.60;;;1.50;;
6394;SDS011;3230;42.588;23.358;2022-08-02T07:37:20;2.33;;;2.07;;
6394;SDS011;3230;42.588;23.358;2022-08-02T07:39:49;2.10;;;1.90;;
6394;SDS011;3230;42.588;23.358;2022-08-02T07:42:15;3.50;;;1.93;;
6394;SDS011;3230;42.588;23.358;2022-08-02T07:44:41;1.80;;;1.70;;
6394;SDS011;3230;42.588;23.358;2022-08-02T07:47:06;1.97;;;1.57;;
6394;SDS011;3230;42.588;23.358;2022-08-02T07:49:32;1.70;;;1.60;;
6394;SDS011;3230;42.588;23.358;2022-08-02T07:51:57;1.90;;;1.70;;
6394;SDS011;3230;42.588;23.358;2022-08-02T07:54:23;4.73;;;1.70;;
6394;SDS011;3230;42.588;23.358;2022-08-02T07:56:49;2.53;;;1.70;;
6394;SDS011;3230;42.588;23.358;2022-08-02T07:59:17;2.37;;;1.77;;
6394;SDS011;3230;42.588;23.358;2022-08-02T08:01:43;1.60;;;1.40;;
6394;SDS011;3230;42.588;23.358;2022-08-02T08:04:08;1.60;;;1.43;;
6394;SDS011;3230;42.588;23.358;2022-08-02T08:06:34;1.87;;;1.20;;
6394;SDS011;3230;42.588;23.358;2022-08-02T08:08:59;1.40;;;1.30;;
6394;SDS011;3230;42.588;23.358;2022-08-02T08:11:25;1.60;;;1.43;;
6394;SDS011;3230;42.588;23.358;2022-08-02T08:13:50;13.93;;;1.80;;
6394;SDS011;3230;42.588;23.358;2022-08-02T08:16:16;2.23;;;1.53;;
6394;SDS011;3230;42.588;23.358;2022-08-02T08:18:42;5.37;;;1.47;;
6394;SDS011;3230;42.588;23.358;2022-08-02T08:21:07;1.57;;;1.47;;
6394;SDS011;3230;42.588;23.358;2022-08-02T08:23:34;1.93;;;1.50;;
6394;SDS011;3230;42.588;23.358;2022-08-02T08:26:00;1.93;;;1.70;;
6394;SDS011;3230;42.588;23.358;2022-08-02T08:28:25;2.03;;;1.70;;
6394;SDS011;3230;42.588;23.358;2022-08-02T08:30:51;3.30;;;1.80;;
6394;SDS011;3230;42.588;23.358;2022-08-02T08:33:16;1.70;;;1.47;;
6394;SDS011;3230;42.588;23.358;2022-08-02T08:35:42;1.30;;;1.20;;
6394;SDS011;3230;42.588;23.358;2022-08-02T08:38:07;25.03;;;2.60;;
6394;SDS011;3230;42.588;23.358;2022-08-02T08:40:33;1.60;;;1.50;;
6394;SDS011;3230;42.588;23.358;2022-08-02T08:42:59;1.60;;;1.50;;
6394;SDS011;3230;42.588;23.358;2022-08-02T08:45:24;3.10;;;1.60;;
6394;SDS011;3230;42.588;23.358;2022-08-02T08:47:51;2.67;;;1.57;;
6394;SDS011;3230;42.588;23.358;2022-08-02T08:50:24;1.40;;;1.30;;
6394;SDS011;3230;42.588;23.358;2022-08-02T08:52:56;2.40;;;1.60;;
6394;SDS011;3230;42.588;23.358;2022-08-02T08:55:27;3.63;;;1.70;;
6394;SDS011;3230;42.588;23.358;2022-08-02T08:57:54;2.87;;;1.70;;
6394;SDS011;3230;42.588;23.358;2022-08-02T09:00:20;3.00;;;1.93;;
6394;SDS011;3230;42.588;23.358;2022-08-02T09:02:45;2.00;;;1.80;;
6394;SDS011;3230;42.588;23.358;2022-08-02T09:05:12;2.50;;;1.70;;
6394;SDS011;3230;42.588;23.358;2022-08-02T09:07:39;8.83;;;2.07;;
6394;SDS011;3230;42.588;23.358;2022-08-02T09:18:30;4.97;;;2.20;;
6394;SDS011;3230;42.588;23.358;2022-08-02T09:21:02;2.47;;;1.80;;
6394;SDS011;3230;42.588;23.358;2022-08-02T09:23:36;9.33;;;2.10;;
6394;SDS011;3230;42.588;23.358;2022-08-02T09:26:07;2.10;;;1.67;;
6394;SDS011;3230;42.588;23.358;2022-08-02T09:28:35;4.37;;;1.93;;
6394;SDS011;3230;42.588;23.358;2022-08-02T09:31:06;4.60;;;2.10;;
6394;SDS011;3230;42.588;23.358;2022-08-02T09:33:37;2.13;;;1.90;;
6394;SDS011;3230;42.588;23.358;2022-08-02T09:36:04;3.23;;;1.87;;
6394;SDS011;3230;42.588;23.358;2022-08-02T09:38:34;5.17;;;2.10;;
6394;SDS011;3230;42.588;23.358;2022-08-02T09:41:18;2.37;;;1.77;;
6394;SDS011;3230;42.588;23.358;2022-08-02T09:43:45;2.80;;;1.87;;
6394;SDS011;3230;42.588;23.358;2022-08-02T09:48:47;3.40;;;1.70;;
6394;SDS011;3230;42.588;23.358;2022-08-02T09:51:16;4.20;;;1.70;;
6394;SDS011;3230;42.588;23.358;2022-08-02T09:53:42;4.70;;;1.70;;
6394;SDS011;3230;42.588;23.358;2022-08-02T09:56:08;5.20;;;2.30;;
6394;SDS011;3230;42.588;23.358;2022-08-02T09:58:36;13.63;;;2.50;;
6394;SDS011;3230;42.588;23.358;2022-08-02T10:01:03;3.43;;;1.90;;
6394;SDS011;3230;42.588;23.358;2022-08-02T10:03:29;2.07;;;1.70;;
6394;SDS011;3230;42.588;23.358;2022-08-02T10:05:55;20.40;;;3.00;;
6394;SDS011;3230;42.588;23.358;2022-08-02T10:08:25;1.90;;;1.50;;
6394;SDS011;3230;42.588;23.358;2022-08-02T10:10:52;3.80;;;1.47;;
6394;SDS011;3230;42.588;23.358;2022-08-02T10:13:27;2.30;;;1.57;;
6394;SDS011;3230;42.588;23.358;2022-08-02T10:15:58;1.97;;;1.47;;
6394;SDS011;3230;42.588;23.358;2022-08-02T10:18:24;1.93;;;1.53;;
6394;SDS011;3230;42.588;23.358;2022-08-02T10:20:50;2.00;;;1.40;;
6394;SDS011;3230;42.588;23.358;2022-08-02T10:23:19;2.20;;;1.40;;
6394;SDS011;3230;42.588;23.358;2022-08-02T10:25:46;1.90;;;1.60;;
6394;SDS011;3230;42.588;23.358;2022-08-02T10:28:14;1.97;;;1.53;;
6394;SDS011;3230;42.588;23.358;2022-08-02T10:30:41;2.30;;;1.67;;
6394;SDS011;3230;42.588;23.358;2022-08-02T10:33:09;1.90;;;1.53;;
6394;SDS011;3230;42.588;23.358;2022-08-02T10:35:37;1.93;;;1.33;;
6394;SDS011;3230;42.588;23.358;2022-08-02T10:38:06;1.77;;;1.40;;
6394;SDS011;3230;42.588;23.358;2022-08-02T10:40:43;2.50;;;1.50;;
6394;SDS011;3230;42.588;23.358;2022-08-02T10:43:38;1.80;;;1.30;;
6394;SDS011;3230;42.588;23.358;2022-08-02T10:54:19;5.77;;;1.83;;
6394;SDS011;3230;42.588;23.358;2022-08-02T10:56:46;2.23;;;1.73;;
6394;SDS011;3230;42.588;23.358;2022-08-02T10:59:32;3.13;;;1.60;;
6394;SDS011;3230;42.588;23.358;2022-08-02T11:02:01;2.20;;;1.63;;
6394;SDS011;3230;42.588;23.358;2022-08-02T11:05:00;2.93;;;1.90;;
6394;SDS011;3230;42.588;23.358;2022-08-02T11:07:18;3.53;;;1.50;;
6394;SDS011;3230;42.588;23.358;2022-08-02T11:09:46;4.10;;;2.80;;
6394;SDS011;3230;42.588;23.358;2022-08-02T11:14:44;3.40;;;1.70;;
6394;SDS011;3230;42.588;23.358;2022-08-02T11:17:21;4.33;;;1.70;;
6394;SDS011;3230;42.588;23.358;2022-08-02T11:22:34;2.10;;;1.63;;
6394;SDS011;3230;42.588;23.358;2022-08-02T11:27:48;2.10;;;1.80;;
6394;SDS011;3230;42.588;23.358;2022-08-02T11:30:14;3.50;;;1.50;;
6394;SDS011;3230;42.588;23.358;2022-08-02T11:32:40;2.23;;;1.83;;
6394;SDS011;3230;42.588;23.358;2022-08-02T11:35:06;2.90;;;1.70;;
6394;SDS011;3230;42.588;23.358;2022-08-02T11:37:37;3.20;;;1.97;;
6394;SDS011;3230;42.588;23.358;2022-08-02T11:40:08;3.10;;;1.80;;
6394;SDS011;3230;42.588;23.358;2022-08-02T11:42:34;2.40;;;1.70;;
6394;SDS011;3230;42.588;23.358;2022-08-02T11:45:05;2.63;;;1.70;;
6394;SDS011;3230;42.588;23.358;2022-08-02T11:47:32;3.03;;;2.10;;
6394;SDS011;3230;42.588;23.358;2022-08-02T11:50:06;7.53;;;2.90;;
6394;SDS011;3230;42.588;23.358;2022-08-02T11:52:33;4.10;;;2.60;;
6394;SDS011;3230;42.588;23.358;2022-08-02T11:54:59;3.10;;;2.00;;
6394;SDS011;3230;42.588;23.358;2022-08-02T11:57:25;2.53;;;1.80;;
6394;SDS011;3230;42.588;23.358;2022-08-02T11:59:51;2.00;;;1.80;;
6394;SDS011;3230;42.588;23.358;2022-08-02T12:02:22;2.03;;;1.73;;
6394;SDS011;3230;42.588;23.358;2022-08-02T12:04:53;4.00;;;1.63;;
6394;SDS011;3230;42.588;23.358;2022-08-02T12:07:28;1.90;;;1.60;;
6394;SDS011;3230;42.588;23.358;2022-08-02T12:10:03;2.30;;;1.67;;
6394;SDS011;3230;42.588;23.358;2022-08-02T12:12:30;6.20;;;1.90;;
6394;SDS011;3230;42.588;23.358;2022-08-02T12:14:56;2.10;;;1.90;;
6394;SDS011;3230;42.588;23.358;2022-08-02T12:17:25;6.80;;;1.60;;
6394;SDS011;3230;42.588;23.358;2022-08-02T12:20:09;2.77;;;1.60;;
6394;SDS011;3230;42.588;23.358;2022-08-02T12:22:36;2.37;;;1.70;;
6394;SDS011;3230;42.588;23.358;2022-08-02T12:25:23;7.80;;;2.37;;
6394;SDS011;3230;42.588;23.358;2022-08-02T12:27:48;20.37;;;2.57;;
6394;SDS011;3230;42.588;23.358;2022-08-02T12:30:14;2.03;;;1.57;;
6394;SDS011;3230;42.588;23.358;2022-08-02T12:32:42;1.80;;;1.40;;
6394;SDS011;3230;42.588;23.358;2022-08-02T12:37:39;2.10;;;1.50;;
6394;SDS011;3230;42.588;23.358;2022-08-02T12:43:06;2.40;;;1.43;;
6394;SDS011;3230;42.588;23.358;2022-08-02T12:45:43;2.10;;;1.50;;
6394;SDS011;3230;42.588;23.358;2022-08-02T12:48:11;2.80;;;1.70;;
6394;SDS011;3230;42.588;23.358;2022-08-02T12:50:37;1.93;;;1.20;;
6394;SDS011;3230;42.588;23.358;2022-08-02T12:53:13;1.70;;;1.30;;
6394;SDS011;3230;42.588;23.358;2022-08-02T12:55:56;1.67;;;1.20;;
6394;SDS011;3230;42.588;23.358;2022-08-02T12:58:22;2.00;;;1.43;;
6394;SDS011;3230;42.588;23.358;2022-08-02T13:00:56;2.30;;;1.43;;
6394;SDS011;3230;42.588;23.358;2022-08-02T13:03:24;1.80;;;1.40;;
6394;SDS011;3230;42.588;23.358;2022-08-02T13:05:50;4.17;;;1.70;;
6394;SDS011;3230;42.588;23.358;2022-08-02T13:08:16;1.60;;;1.30;;
6394;SDS011;3230;42.588;23.358;2022-08-02T13:10:42;1.90;;;1.50;;
6394;SDS011;3230;42.588;23.358;2022-08-02T13:13:07;2.10;;;1.40;;
6394;SDS011;3230;42.588;23.358;2022-08-02T13:15:33;6.50;;;1.30;;
6394;SDS011;3230;42.588;23.358;2022-08-02T13:17:58;2.40;;;1.50;;
6394;SDS011;3230;42.588;23.358;2022-08-02T13:20:25;2.10;;;1.60;;
6394;SDS011;3230;42.588;23.358;2022-08-02T13:22:51;1.80;;;1.40;;
6394;SDS011;3230;42.588;23.358;2022-08-02T13:25:18;2.37;;;1.60;;
6394;SDS011;3230;42.588;23.358;2022-08-02T13:27:46;4.47;;;1.40;;
6394;SDS011;3230;42.588;23.358;2022-08-02T13:30:12;3.10;;;1.60;;
6394;SDS011;3230;42.588;23.358;2022-08-02T13:32:38;3.03;;;1.50;;
6394;SDS011;3230;42.588;23.358;2022-08-02T13:35:03;3.60;;;1.60;;
6394;SDS011;3230;42.588;23.358;2022-08-02T13:37:29;4.03;;;1.40;;
6394;SDS011;3230;42.588;23.358;2022-08-02T13:39:55;2.20;;;1.53;;
6394;SDS011;3230;42.588;23.358;2022-08-02T13:42:20;3.50;;;1.67;;
6394;SDS011;3230;42.588;23.358;2022-08-02T13:44:46;1.77;;;1.30;;
6394;SDS011;3230;42.588;23.358;2022-08-02T13:47:12;2.00;;;1.50;;
6394;SDS011;3230;42.588;23.358;2022-08-02T13:49:38;7.33;;;2.73;;
6394;SDS011;3230;42.588;23.358;2022-08-02T13:52:05;2.47;;;1.60;;
6394;SDS011;3230;42.588;23.358;2022-08-02T13:54:30;4.43;;;1.70;;
6394;SDS011;3230;42.588;23.358;2022-08-02T13:56:56;2.50;;;1.63;;
6394;SDS011;3230;42.588;23.358;2022-08-02T13:59:21;1.90;;;1.40;;
6394;SDS011;3230;42.588;23.358;2022-08-02T14:01:47;2.37;;;1.50;;
6394;SDS011;3230;42.588;23.358;2022-08-02T14:04:12;1.83;;;1.47;;
6394;SDS011;3230;42.588;23.358;2022-08-02T14:06:38;1.87;;;1.40;;
6394;SDS011;3230;42.588;23.358;2022-08-02T14:09:03;2.03;;;1.40;;
6394;SDS011;3230;42.588;23.358;2022-08-02T14:11:29;2.67;;;1.80;;
6394;SDS011;3230;42.588;23.358;2022-08-02T14:13:55;2.73;;;1.60;;
6394;SDS011;3230;42.588;23.358;2022-08-02T14:16:21;3.50;;;2.10;;
6394;SDS011;3230;42.588;23.358;2022-08-02T14:18:46;18.87;;;2.83;;
6394;SDS011;3230;42.588;23.358;2022-08-02T14:21:12;9.50;;;1.90;;
6394;SDS011;3230;42.588;23.358;2022-08-02T14:23:37;3.40;;;1.50;;
6394;SDS011;3230;42.588;23.358;2022-08-02T14:26:03;7.83;;;1.87;;
6394;SDS011;3230;42.588;23.358;2022-08-02T14:28:29;1.90;;;1.47;;
6394;SDS011;3230;42.588;23.358;2022-08-02T14:30:55;2.93;;;1.63;;
6394;SDS011;3230;42.588;23.358;2022-08-02T14:33:21;1.70;;;1.30;;
6394;SDS011;3230;42.588;23.358;2022-08-02T14:35:47;4.10;;;1.63;;
6394;SDS011;3230;42.588;23.358;2022-08-02T14:38:12;2.00;;;1.60;;
6394;SDS011;3230;42.588;23.358;2022-08-02T14:40:38;4.20;;;1.50;;
6394;SDS011;3230;42.588;23.358;2022-08-02T14:43:03;2.10;;;1.70;;
6394;SDS011;3230;42.588;23.358;2022-08-02T14:45:29;2.83;;;1.40;;
6394;SDS011;3230;42.588;23.358;2022-08-02T14:47:56;13.30;;;2.37;;
6394;SDS011;3230;42.588;23.358;2022-08-02T14:50:21;5.67;;;1.57;;
6394;SDS011;3230;42.588;23.358;2022-08-02T14:52:47;4.77;;;1.57;;
6394;SDS011;3230;42.588;23.358;2022-08-02T14:55:14;1.67;;;1.40;;
6394;SDS011;3230;42.588;23.358;2022-08-02T14:57:40;12.47;;;2.27;;
6394;SDS011;3230;42.588;23.358;2022-08-02T15:00:05;1.87;;;1.27;;
6394;SDS011;3230;42.588;23.358;2022-08-02T15:02:31;2.90;;;1.40;;
6394;SDS011;3230;42.588;23.358;2022-08-02T15:04:57;1.70;;;1.40;;
6394;SDS011;3230;42.588;23.358;2022-08-02T15:07:22;3.57;;;1.40;;
6394;SDS011;3230;42.588;23.358;2022-08-02T15:09:48;2.27;;;1.50;;
6394;SDS011;3230;42.588;23.358;2022-08-02T15:12:14;1.47;;;1.10;;
6394;SDS011;3230;42.588;23.358;2022-08-02T15:14:39;6.90;;;1.43;;
6394;SDS011;3230;42.588;23.358;2022-08-02T15:17:05;3.40;;;1.37;;
6394;SDS011;3230;42.588;23.358;2022-08-02T15:19:31;2.10;;;1.40;;
6394;SDS011;3230;42.588;23.358;2022-08-02T15:21:57;21.30;;;2.47;;
6394;SDS011;3230;42.588;23.358;2022-08-02T15:24:23;3.80;;;1.60;;
6394;SDS011;3230;42.588;23.358;2022-08-02T15:26:49;1.90;;;1.40;;
6394;SDS011;3230;42.588;23.358;2022-08-02T15:29:18;8.97;;;1.70;;
6394;SDS011;3230;42.588;23.358;2022-08-02T15:31:44;2.53;;;1.27;;
6394;SDS011;3230;42.588;23.358;2022-08-02T15:34:10;1.70;;;1.60;;
6394;SDS011;3230;42.588;23.358;2022-08-02T15:36:36;2.10;;;1.90;;
6394;SDS011;3230;42.588;23.358;2022-08-02T15:39:01;2.00;;;1.50;;
6394;SDS011;3230;42.588;23.358;2022-08-02T15:41:26;2.83;;;1.60;;
6394;SDS011;3230;42.588;23.358;2022-08-02T15:43:52;3.77;;;1.70;;
6394;SDS011;3230;42.588;23.358;2022-08-02T15:46:17;4.60;;;2.30;;
6394;SDS011;3230;42.588;23.358;2022-08-02T15:48:43;13.23;;;3.60;;
6394;SDS011;3230;42.588;23.358;2022-08-02T15:51:09;20.80;;;6.57;;
6394;SDS011;3230;42.588;23.358;2022-08-02T15:53:34;4.53;;;2.37;;
6394;SDS011;3230;42.588;23.358;2022-08-02T15:55:59;4.40;;;2.20;;
6394;SDS011;3230;42.588;23.358;2022-08-02T15:58:25;1.97;;;1.67;;